sensor_id;sensor_type;location;lat;lon;timestamp;temperature;humidity
55598;DHT22;41463;53.186;5.552;2022-12-18T00:01:22;0.70;96.80
55598;DHT22;41463;53.186;5.552;2022-12-18T00:03:48;-1.10;96.00
55598;DHT22;41463;53.186;5.552;2022-12-18T00:06:16;-1.50;95.10
55598;DHT22;41463;53.186;5.552;2022-12-18T00:08:42;0.20;95.30
55598;DHT22;41463;53.186;5.552;2022-12-18T00:11:16;-1.30;94.90
55598;DHT22;41463;53.186;5.552;2022-12-18T00:13:44;-0.70;95.00
55598;DHT22;41463;53.186;5.552;2022-12-18T00:16:13;-1.40;94.60
55598;DHT22;41463;53.186;5.552;2022-12-18T00:18:40;-1.30;94.20
55598;DHT22;41463;53.186;5.552;2022-12-18T00:21:08;-0.70;94.60
55598;DHT22;41463;53.186;5.552;2022-12-18T00:23:38;-1.30;94.20
55598;DHT22;41463;53.186;5.552;2022-12-18T00:26:07;-1.20;94.20
55598;DHT22;41463;53.186;5.552;2022-12-18T00:28:33;-0.70;94.40
55598;DHT22;41463;53.186;5.552;2022-12-18T00:31:03;-1.20;94.40
55598;DHT22;41463;53.186;5.552;2022-12-18T00:33:30;-1.10;94.10
55598;DHT22;41463;53.186;5.552;2022-12-18T00:36:01;-0.60;94.10
55598;DHT22;41463;53.186;5.552;2022-12-18T00:38:27;-0.90;94.20
55598;DHT22;41463;53.186;5.552;2022-12-18T00:40:53;0.30;94.50
55598;DHT22;41463;53.186;5.552;2022-12-18T00:43:19;-1.00;94.10
55598;DHT22;41463;53.186;5.552;2022-12-18T00:45:48;-1.10;94.10
55598;DHT22;41463;53.186;5.552;2022-12-18T00:48:17;-1.10;94.20
55598;DHT22;41463;53.186;5.552;2022-12-18T00:50:42;0.30;94.40
55598;DHT22;41463;53.186;5.552;2022-12-18T00:53:08;-1.10;94.40
55598;DHT22;41463;53.186;5.552;2022-12-18T00:55:41;-1.10;94.30
55598;DHT22;41463;53.186;5.552;2022-12-18T00:58:08;-1.20;94.20
55598;DHT22;41463;53.186;5.552;2022-12-18T01:00:34;-0.40;94.60
55598;DHT22;41463;53.186;5.552;2022-12-18T01:03:00;0.30;94.70
55598;DHT22;41463;53.186;5.552;2022-12-18T01:05:26;-0.30;94.70
55598;DHT22;41463;53.186;5.552;2022-12-18T01:07:52;-1.20;94.20
55598;DHT22;41463;53.186;5.552;2022-12-18T01:10:18;-1.20;94.20
55598;DHT22;41463;53.186;5.552;2022-12-18T01:12:44;-1.30;94.30
55598;DHT22;41463;53.186;5.552;2022-12-18T01:15:14;0.20;94.80
55598;DHT22;41463;53.186;5.552;2022-12-18T01:17:40;-1.30;94.40
55598;DHT22;41463;53.186;5.552;2022-12-18T01:20:07;-1.30;94.30
55598;DHT22;41463;53.186;5.552;2022-12-18T01:22:34;-1.30;94.40
55598;DHT22;41463;53.186;5.552;2022-12-18T01:25:00;-1.30;94.40
55598;DHT22;41463;53.186;5.552;2022-12-18T01:27:29;-2.00;94.40
55598;DHT22;41463;53.186;5.552;2022-12-18T01:29:55;-0.80;94.60
55598;DHT22;41463;53.186;5.552;2022-12-18T01:32:20;-1.30;94.40
55598;DHT22;41463;53.186;5.552;2022-12-18T01:34:47;0.80;94.90
55598;DHT22;41463;53.186;5.552;2022-12-18T01:37:13;-1.30;94.50
55598;DHT22;41463;53.186;5.552;2022-12-18T01:39:39;-1.50;94.80
55598;DHT22;41463;53.186;5.552;2022-12-18T01:42:12;-1.30;94.40
55598;DHT22;41463;53.186;5.552;2022-12-18T01:50:20;-1.30;94.00
55598;DHT22;41463;53.186;5.552;2022-12-18T01:53:05;-1.20;94.10
55598;DHT22;41463;53.186;5.552;2022-12-18T01:55:39;-1.20;94.00
55598;DHT22;41463;53.186;5.552;2022-12-18T01:58:06;-1.30;93.90
55598;DHT22;41463;53.186;5.552;2022-12-18T02:00:35;-1.30;94.00
55598;DHT22;41463;53.186;5.552;2022-12-18T02:03:01;-0.20;94.00
55598;DHT22;41463;53.186;5.552;2022-12-18T02:05:33;-0.10;94.10
55598;DHT22;41463;53.186;5.552;2022-12-18T02:28:24;-1.40;93.10
55598;DHT22;41463;53.186;5.552;2022-12-18T02:30:52;-1.40;93.20
55598;DHT22;41463;53.186;5.552;2022-12-18T02:33:19;-0.70;93.30
55598;DHT22;41463;53.186;5.552;2022-12-18T02:35:47;-1.50;93.10
55598;DHT22;41463;53.186;5.552;2022-12-18T02:38:17;-1.40;93.10
55598;DHT22;41463;53.186;5.552;2022-12-18T02:40:43;-1.40;93.10
55598;DHT22;41463;53.186;5.552;2022-12-18T02:43:12;-0.20;93.70
55598;DHT22;41463;53.186;5.552;2022-12-18T02:45:53;-0.10;93.60
55598;DHT22;41463;53.186;5.552;2022-12-18T02:48:23;-1.40;93.20
55598;DHT22;41463;53.186;5.552;2022-12-18T02:51:15;-1.50;93.30
55598;DHT22;41463;53.186;5.552;2022-12-18T02:53:53;-1.50;93.40
55598;DHT22;41463;53.186;5.552;2022-12-18T02:56:29;-1.50;93.20
55598;DHT22;41463;53.186;5.552;2022-12-18T02:59:00;-1.50;93.30
55598;DHT22;41463;53.186;5.552;2022-12-18T03:06:56;-1.50;93.20
55598;DHT22;41463;53.186;5.552;2022-12-18T03:09:31;-1.50;93.20
55598;DHT22;41463;53.186;5.552;2022-12-18T03:12:19;-1.50;93.10
55598;DHT22;41463;53.186;5.552;2022-12-18T03:15:08;0.00;93.70
55598;DHT22;41463;53.186;5.552;2022-12-18T03:17:35;-1.50;93.10
55598;DHT22;41463;53.186;5.552;2022-12-18T03:20:10;-1.40;93.00
55598;DHT22;41463;53.186;5.552;2022-12-18T03:22:38;-1.50;92.90
55598;DHT22;41463;53.186;5.552;2022-12-18T03:25:08;-1.00;93.10
55598;DHT22;41463;53.186;5.552;2022-12-18T03:27:40;-1.50;92.90
55598;DHT22;41463;53.186;5.552;2022-12-18T03:30:12;-1.50;92.90
55598;DHT22;41463;53.186;5.552;2022-12-18T03:32:52;-1.50;92.80
55598;DHT22;41463;53.186;5.552;2022-12-18T03:35:25;-1.50;92.80
55598;DHT22;41463;53.186;5.552;2022-12-18T03:37:51;-1.60;92.80
55598;DHT22;41463;53.186;5.552;2022-12-18T03:40:21;-1.60;93.10
55598;DHT22;41463;53.186;5.552;2022-12-18T03:42:52;-1.60;92.90
55598;DHT22;41463;53.186;5.552;2022-12-18T03:45:27;-1.60;92.70
55598;DHT22;41463;53.186;5.552;2022-12-18T03:50:36;-1.60;92.50
55598;DHT22;41463;53.186;5.552;2022-12-18T03:55:48;-1.90;92.40
55598;DHT22;41463;53.186;5.552;2022-12-18T03:58:17;0.10;92.90
55598;DHT22;41463;53.186;5.552;2022-12-18T04:00:45;-1.80;92.40
55598;DHT22;41463;53.186;5.552;2022-12-18T04:03:14;-1.80;92.40
55598;DHT22;41463;53.186;5.552;2022-12-18T04:05:41;-0.70;92.60
55598;DHT22;41463;53.186;5.552;2022-12-18T04:08:10;-1.90;92.30
55598;DHT22;41463;53.186;5.552;2022-12-18T04:10:36;-2.10;92.30
55598;DHT22;41463;53.186;5.552;2022-12-18T04:13:02;-1.30;92.60
55598;DHT22;41463;53.186;5.552;2022-12-18T04:15:33;-2.10;92.40
55598;DHT22;41463;53.186;5.552;2022-12-18T04:18:00;-2.10;92.40
55598;DHT22;41463;53.186;5.552;2022-12-18T04:20:28;-2.20;92.40
55598;DHT22;41463;53.186;5.552;2022-12-18T04:22:57;-2.30;92.40
55598;DHT22;41463;53.186;5.552;2022-12-18T04:25:23;-2.30;92.40
55598;DHT22;41463;53.186;5.552;2022-12-18T04:27:48;-2.40;92.50
55598;DHT22;41463;53.186;5.552;2022-12-18T04:30:20;-2.40;92.40
55598;DHT22;41463;53.186;5.552;2022-12-18T04:32:49;-2.50;92.40
55598;DHT22;41463;53.186;5.552;2022-12-18T04:35:15;-2.50;92.50
55598;DHT22;41463;53.186;5.552;2022-12-18T04:37:40;-2.60;92.60
55598;DHT22;41463;53.186;5.552;2022-12-18T04:40:07;-2.70;92.40
55598;DHT22;41463;53.186;5.552;2022-12-18T04:42:35;-2.80;92.40
55598;DHT22;41463;53.186;5.552;2022-12-18T04:45:01;-2.90;92.70
55598;DHT22;41463;53.186;5.552;2022-12-18T04:47:30;-3.00;92.80
55598;DHT22;41463;53.186;5.552;2022-12-18T04:49:59;-2.90;92.90
55598;DHT22;41463;53.186;5.552;2022-12-18T04:52:24;-2.90;92.60
55598;DHT22;41463;53.186;5.552;2022-12-18T04:54:50;-3.00;92.80
55598;DHT22;41463;53.186;5.552;2022-12-18T04:57:16;-3.00;93.00
55598;DHT22;41463;53.186;5.552;2022-12-18T04:59:46;-2.90;94.50
55598;DHT22;41463;53.186;5.552;2022-12-18T05:02:12;-1.80;93.50
55598;DHT22;41463;53.186;5.552;2022-12-18T05:04:37;-2.90;93.70
55598;DHT22;41463;53.186;5.552;2022-12-18T05:07:04;-3.10;92.60
55598;DHT22;41463;53.186;5.552;2022-12-18T05:09:29;-3.20;92.60
55598;DHT22;41463;53.186;5.552;2022-12-18T05:11:58;-3.20;92.60
55598;DHT22;41463;53.186;5.552;2022-12-18T05:14:24;-3.20;92.60
55598;DHT22;41463;53.186;5.552;2022-12-18T05:16:50;-3.30;92.60
55598;DHT22;41463;53.186;5.552;2022-12-18T05:19:15;-3.30;92.60
55598;DHT22;41463;53.186;5.552;2022-12-18T05:21:41;-3.30;92.80
55598;DHT22;41463;53.186;5.552;2022-12-18T05:24:07;-3.30;92.70
55598;DHT22;41463;53.186;5.552;2022-12-18T05:26:33;-3.30;92.60
55598;DHT22;41463;53.186;5.552;2022-12-18T05:28:58;-3.40;92.50
55598;DHT22;41463;53.186;5.552;2022-12-18T05:31:24;-3.40;92.70
55598;DHT22;41463;53.186;5.552;2022-12-18T05:33:50;-3.40;92.80
55598;DHT22;41463;53.186;5.552;2022-12-18T05:36:16;-3.40;93.20
55598;DHT22;41463;53.186;5.552;2022-12-18T05:38:44;-3.70;92.80
55598;DHT22;41463;53.186;5.552;2022-12-18T05:41:10;-3.50;92.90
55598;DHT22;41463;53.186;5.552;2022-12-18T05:43:39;-3.10;92.90
55598;DHT22;41463;53.186;5.552;2022-12-18T05:46:12;-3.50;92.80
55598;DHT22;41463;53.186;5.552;2022-12-18T05:48:38;-3.50;92.70
55598;DHT22;41463;53.186;5.552;2022-12-18T05:51:10;-3.50;92.60
55598;DHT22;41463;53.186;5.552;2022-12-18T05:53:37;-3.70;92.50
55598;DHT22;41463;53.186;5.552;2022-12-18T05:56:09;-3.60;92.50
55598;DHT22;41463;53.186;5.552;2022-12-18T05:58:35;-3.60;92.50
55598;DHT22;41463;53.186;5.552;2022-12-18T06:01:12;-3.60;92.50
55598;DHT22;41463;53.186;5.552;2022-12-18T06:03:38;-3.60;92.40
55598;DHT22;41463;53.186;5.552;2022-12-18T06:06:04;-3.70;92.40
55598;DHT22;41463;53.186;5.552;2022-12-18T06:08:30;-3.70;92.40
55598;DHT22;41463;53.186;5.552;2022-12-18T06:10:55;-3.70;92.30
55598;DHT22;41463;53.186;5.552;2022-12-18T06:13:24;-3.80;92.20
55598;DHT22;41463;53.186;5.552;2022-12-18T06:15:56;-3.80;92.20
55598;DHT22;41463;53.186;5.552;2022-12-18T06:18:22;-3.80;92.20
55598;DHT22;41463;53.186;5.552;2022-12-18T06:20:55;-3.80;92.30
55598;DHT22;41463;53.186;5.552;2022-12-18T06:23:21;-3.90;92.20
55598;DHT22;41463;53.186;5.552;2022-12-18T06:25:47;-3.90;92.10
55598;DHT22;41463;53.186;5.552;2022-12-18T06:28:15;-3.90;92.10
55598;DHT22;41463;53.186;5.552;2022-12-18T06:30:45;-3.90;92.10
55598;DHT22;41463;53.186;5.552;2022-12-18T06:33:11;-4.00;92.10
55598;DHT22;41463;53.186;5.552;2022-12-18T06:35:37;-3.90;92.10
55598;DHT22;41463;53.186;5.552;2022-12-18T06:38:05;-4.00;92.10
55598;DHT22;41463;53.186;5.552;2022-12-18T06:40:34;-3.00;92.50
55598;DHT22;41463;53.186;5.552;2022-12-18T06:43:02;-4.00;92.00
55598;DHT22;41463;53.186;5.552;2022-12-18T06:45:29;-4.00;91.90
55598;DHT22;41463;53.186;5.552;2022-12-18T06:47:58;-4.00;91.90
55598;DHT22;41463;53.186;5.552;2022-12-18T06:50:27;-4.10;91.90
55598;DHT22;41463;53.186;5.552;2022-12-18T06:52:52;-4.10;91.90
55598;DHT22;41463;53.186;5.552;2022-12-18T06:55:18;-4.10;91.90
55598;DHT22;41463;53.186;5.552;2022-12-18T06:57:44;-4.10;91.90
55598;DHT22;41463;53.186;5.552;2022-12-18T07:03:03;-4.10;91.90
55598;DHT22;41463;53.186;5.552;2022-12-18T07:05:41;-3.00;92.40
55598;DHT22;41463;53.186;5.552;2022-12-18T07:08:09;-5.10;91.60
55598;DHT22;41463;53.186;5.552;2022-12-18T07:10:41;-5.80;91.50
55598;DHT22;41463;53.186;5.552;2022-12-18T07:13:07;-3.00;92.10
55598;DHT22;41463;53.186;5.552;2022-12-18T07:15:33;-5.40;91.60
55598;DHT22;41463;53.186;5.552;2022-12-18T07:17:59;-3.20;92.10
55598;DHT22;41463;53.186;5.552;2022-12-18T07:20:24;-4.30;91.80
55598;DHT22;41463;53.186;5.552;2022-12-18T07:22:53;-4.20;91.90
55598;DHT22;41463;53.186;5.552;2022-12-18T07:25:19;-2.40;92.30
55598;DHT22;41463;53.186;5.552;2022-12-18T07:27:44;-4.20;91.90
55598;DHT22;41463;53.186;5.552;2022-12-18T07:30:10;-4.30;92.00
55598;DHT22;41463;53.186;5.552;2022-12-18T07:32:36;-4.20;92.10
55598;DHT22;41463;53.186;5.552;2022-12-18T07:35:02;-4.20;92.00
55598;DHT22;41463;53.186;5.552;2022-12-18T07:37:28;-4.20;91.90
55598;DHT22;41463;53.186;5.552;2022-12-18T07:39:54;-4.20;91.90
55598;DHT22;41463;53.186;5.552;2022-12-18T07:42:22;-4.10;91.90
55598;DHT22;41463;53.186;5.552;2022-12-18T07:45:01;-4.10;91.80
55598;DHT22;41463;53.186;5.552;2022-12-18T07:47:28;-2.40;92.10
55598;DHT22;41463;53.186;5.552;2022-12-18T07:49:54;-4.20;91.70
55598;DHT22;41463;53.186;5.552;2022-12-18T07:52:21;-4.20;91.70
55598;DHT22;41463;53.186;5.552;2022-12-18T07:54:47;-4.20;91.80
55598;DHT22;41463;53.186;5.552;2022-12-18T07:57:16;-4.20;91.80
55598;DHT22;41463;53.186;5.552;2022-12-18T07:59:42;-4.10;91.80
55598;DHT22;41463;53.186;5.552;2022-12-18T08:02:08;-4.10;91.70
55598;DHT22;41463;53.186;5.552;2022-12-18T08:04:33;-4.20;91.70
55598;DHT22;41463;53.186;5.552;2022-12-18T08:07:02;-4.10;91.80
55598;DHT22;41463;53.186;5.552;2022-12-18T08:09:30;-4.10;91.80
55598;DHT22;41463;53.186;5.552;2022-12-18T08:11:56;-4.20;91.80
55598;DHT22;41463;53.186;5.552;2022-12-18T08:14:22;-4.20;91.70
55598;DHT22;41463;53.186;5.552;2022-12-18T08:16:48;-4.20;91.80
55598;DHT22;41463;53.186;5.552;2022-12-18T08:19:16;-4.10;91.90
55598;DHT22;41463;53.186;5.552;2022-12-18T08:21:45;-4.80;91.70
55598;DHT22;41463;53.186;5.552;2022-12-18T08:24:11;-4.30;91.70
55598;DHT22;41463;53.186;5.552;2022-12-18T08:26:37;-4.00;91.90
55598;DHT22;41463;53.186;5.552;2022-12-18T08:29:03;-4.30;91.60
55598;DHT22;41463;53.186;5.552;2022-12-18T08:31:30;-3.20;91.80
55598;DHT22;41463;53.186;5.552;2022-12-18T08:33:56;-4.00;91.70
55598;DHT22;41463;53.186;5.552;2022-12-18T08:36:23;-3.30;92.10
55598;DHT22;41463;53.186;5.552;2022-12-18T08:38:51;-3.90;91.60
55598;DHT22;41463;53.186;5.552;2022-12-18T08:41:18;-4.60;92.00
55598;DHT22;41463;53.186;5.552;2022-12-18T08:43:44;-3.90;91.80
55598;DHT22;41463;53.186;5.552;2022-12-18T08:46:37;-3.80;91.70
55598;DHT22;41463;53.186;5.552;2022-12-18T08:49:07;-3.70;91.90
55598;DHT22;41463;53.186;5.552;2022-12-18T08:51:33;-3.80;91.60
55598;DHT22;41463;53.186;5.552;2022-12-18T08:54:02;-3.70;91.70
55598;DHT22;41463;53.186;5.552;2022-12-18T08:56:28;-3.70;91.70
55598;DHT22;41463;53.186;5.552;2022-12-18T08:58:55;-3.70;91.70
55598;DHT22;41463;53.186;5.552;2022-12-18T09:01:22;-3.60;91.70
55598;DHT22;41463;53.186;5.552;2022-12-18T09:03:51;-3.60;91.70
55598;DHT22;41463;53.186;5.552;2022-12-18T09:06:18;-3.50;91.80
55598;DHT22;41463;53.186;5.552;2022-12-18T09:08:44;-3.50;91.70
55598;DHT22;41463;53.186;5.552;2022-12-18T09:11:19;-3.40;92.00
55598;DHT22;41463;53.186;5.552;2022-12-18T09:13:48;-1.20;92.30
55598;DHT22;41463;53.186;5.552;2022-12-18T09:16:15;-3.00;91.80
55598;DHT22;41463;53.186;5.552;2022-12-18T09:18:40;-3.20;91.70
55598;DHT22;41463;53.186;5.552;2022-12-18T09:21:20;-3.20;91.80
55598;DHT22;41463;53.186;5.552;2022-12-18T09:23:53;-3.10;91.70
55598;DHT22;41463;53.186;5.552;2022-12-18T09:26:20;-2.20;91.80
55598;DHT22;41463;53.186;5.552;2022-12-18T09:28:46;-1.90;92.40
55598;DHT22;41463;53.186;5.552;2022-12-18T09:31:12;-0.80;98.20
55598;DHT22;41463;53.186;5.552;2022-12-18T09:33:38;-3.00;91.80
55598;DHT22;41463;53.186;5.552;2022-12-18T09:36:09;-3.00;91.60
55598;DHT22;41463;53.186;5.552;2022-12-18T09:38:35;-3.00;91.60
55598;DHT22;41463;53.186;5.552;2022-12-18T09:44:00;-3.10;91.60
55598;DHT22;41463;53.186;5.552;2022-12-18T09:46:34;-3.30;91.70
55598;DHT22;41463;53.186;5.552;2022-12-18T09:49:06;-2.40;92.00
55598;DHT22;41463;53.186;5.552;2022-12-18T09:51:37;-2.60;91.90
55598;DHT22;41463;53.186;5.552;2022-12-18T09:54:10;-3.00;92.20
55598;DHT22;41463;53.186;5.552;2022-12-18T09:56:40;-2.20;92.20
55598;DHT22;41463;53.186;5.552;2022-12-18T09:59:37;-2.90;92.10
55598;DHT22;41463;53.186;5.552;2022-12-18T10:02:22;-2.80;92.10
55598;DHT22;41463;53.186;5.552;2022-12-18T10:05:03;-3.20;91.80
55598;DHT22;41463;53.186;5.552;2022-12-18T10:10:55;-2.00;92.00
55598;DHT22;41463;53.186;5.552;2022-12-18T10:27:27;-2.10;92.00
55598;DHT22;41463;53.186;5.552;2022-12-18T10:29:54;-2.10;91.60
55598;DHT22;41463;53.186;5.552;2022-12-18T10:32:23;-2.00;91.80
55598;DHT22;41463;53.186;5.552;2022-12-18T10:34:52;0.10;92.10
55598;DHT22;41463;53.186;5.552;2022-12-18T10:37:21;-2.40;91.40
55598;DHT22;41463;53.186;5.552;2022-12-18T10:40:13;-1.80;91.30
55598;DHT22;41463;53.186;5.552;2022-12-18T10:42:39;-1.80;91.40
55598;DHT22;41463;53.186;5.552;2022-12-18T10:45:14;-1.60;91.30
55598;DHT22;41463;53.186;5.552;2022-12-18T10:47:49;-1.60;91.30
55598;DHT22;41463;53.186;5.552;2022-12-18T10:50:36;-1.60;91.30
55598;DHT22;41463;53.186;5.552;2022-12-18T10:53:04;-1.50;91.10
55598;DHT22;41463;53.186;5.552;2022-12-18T10:55:36;-1.50;91.00
55598;DHT22;41463;53.186;5.552;2022-12-18T11:00:45;-1.10;91.40
55598;DHT22;41463;53.186;5.552;2022-12-18T11:06:22;-1.30;90.80
55598;DHT22;41463;53.186;5.552;2022-12-18T11:09:21;-1.30;90.80
55598;DHT22;41463;53.186;5.552;2022-12-18T11:11:59;-1.10;93.70
55598;DHT22;41463;53.186;5.552;2022-12-18T11:14:34;-0.50;90.90
55598;DHT22;41463;53.186;5.552;2022-12-18T11:17:00;-1.00;92.80
55598;DHT22;41463;53.186;5.552;2022-12-18T11:19:36;-1.10;93.00
55598;DHT22;41463;53.186;5.552;2022-12-18T11:22:17;-1.10;90.00
55598;DHT22;41463;53.186;5.552;2022-12-18T11:25:02;0.60;90.60
55598;DHT22;41463;53.186;5.552;2022-12-18T11:27:31;-1.10;90.00
55598;DHT22;41463;53.186;5.552;2022-12-18T11:30:31;0.30;90.50
55598;DHT22;41463;53.186;5.552;2022-12-18T11:33:16;-1.10;90.20
55598;DHT22;41463;53.186;5.552;2022-12-18T11:35:49;-1.00;90.10
55598;DHT22;41463;53.186;5.552;2022-12-18T11:38:35;-1.00;90.10
55598;DHT22;41463;53.186;5.552;2022-12-18T11:44:03;-0.90;89.90
55598;DHT22;41463;53.186;5.552;2022-12-18T11:46:37;-0.10;90.00
55598;DHT22;41463;53.186;5.552;2022-12-18T11:49:20;-0.90;89.80
55598;DHT22;41463;53.186;5.552;2022-12-18T11:52:01;-0.90;89.60
55598;DHT22;41463;53.186;5.552;2022-12-18T11:54:35;-0.90;89.70
55598;DHT22;41463;53.186;5.552;2022-12-18T11:57:04;-0.80;89.00
55598;DHT22;41463;53.186;5.552;2022-12-18T11:59:42;-0.80;89.60
55598;DHT22;41463;53.186;5.552;2022-12-18T12:21:43;-0.60;88.80
55598;DHT22;41463;53.186;5.552;2022-12-18T12:30:39;-0.50;88.20
55598;DHT22;41463;53.186;5.552;2022-12-18T12:38:13;-0.50;88.20
55598;DHT22;41463;53.186;5.552;2022-12-18T12:41:06;-0.50;88.20
55598;DHT22;41463;53.186;5.552;2022-12-18T12:43:41;-0.40;88.10
55598;DHT22;41463;53.186;5.552;2022-12-18T12:46:12;0.60;88.00
55598;DHT22;41463;53.186;5.552;2022-12-18T12:49:03;-0.40;87.90
55598;DHT22;41463;53.186;5.552;2022-12-18T12:51:38;-0.40;88.00
55598;DHT22;41463;53.186;5.552;2022-12-18T12:54:14;-0.40;88.00
55598;DHT22;41463;53.186;5.552;2022-12-18T13:01:48;-0.40;87.90
55598;DHT22;41463;53.186;5.552;2022-12-18T13:04:18;-0.30;88.40
55598;DHT22;41463;53.186;5.552;2022-12-18T13:07:00;0.90;89.20
55598;DHT22;41463;53.186;5.552;2022-12-18T13:09:31;-0.40;88.40
55598;DHT22;41463;53.186;5.552;2022-12-18T13:12:03;1.60;89.00
55598;DHT22;41463;53.186;5.552;2022-12-18T13:14:51;-0.30;87.70
55598;DHT22;41463;53.186;5.552;2022-12-18T13:19:50;-0.30;86.50
55598;DHT22;41463;53.186;5.552;2022-12-18T13:22:46;-0.30;87.10
55598;DHT22;41463;53.186;5.552;2022-12-18T13:25:43;-0.30;87.40
55598;DHT22;41463;53.186;5.552;2022-12-18T13:28:11;0.50;87.90
55598;DHT22;41463;53.186;5.552;2022-12-18T13:30:54;-0.30;87.60
55598;DHT22;41463;53.186;5.552;2022-12-18T13:33:43;-0.20;86.90
55598;DHT22;41463;53.186;5.552;2022-12-18T13:39:09;-0.20;86.70
55598;DHT22;41463;53.186;5.552;2022-12-18T13:41:35;0.90;86.90
55598;DHT22;41463;53.186;5.552;2022-12-18T13:46:47;-0.30;86.70
55598;DHT22;41463;53.186;5.552;2022-12-18T13:51:42;-0.30;86.30
55598;DHT22;41463;53.186;5.552;2022-12-18T13:54:32;-0.30;86.40
55598;DHT22;41463;53.186;5.552;2022-12-18T13:57:03;-0.30;86.30
55598;DHT22;41463;53.186;5.552;2022-12-18T13:59:39;-0.40;86.80
55598;DHT22;41463;53.186;5.552;2022-12-18T14:02:22;-0.40;87.20
55598;DHT22;41463;53.186;5.552;2022-12-18T14:04:49;-0.50;87.30
55598;DHT22;41463;53.186;5.552;2022-12-18T14:07:18;-0.50;87.30
55598;DHT22;41463;53.186;5.552;2022-12-18T14:09:55;-0.50;87.40
55598;DHT22;41463;53.186;5.552;2022-12-18T14:12:25;-0.60;87.90
55598;DHT22;41463;53.186;5.552;2022-12-18T14:17:47;-0.60;88.10
55598;DHT22;41463;53.186;5.552;2022-12-18T14:20:17;-0.50;87.90
55598;DHT22;41463;53.186;5.552;2022-12-18T14:22:48;-0.30;87.70
55598;DHT22;41463;53.186;5.552;2022-12-18T14:27:52;-0.60;87.70
55598;DHT22;41463;53.186;5.552;2022-12-18T14:30:42;-0.50;87.70
55598;DHT22;41463;53.186;5.552;2022-12-18T14:33:12;-0.60;88.00
55598;DHT22;41463;53.186;5.552;2022-12-18T14:38:23;-0.50;87.20
55598;DHT22;41463;53.186;5.552;2022-12-18T14:40:54;-0.60;87.00
55598;DHT22;41463;53.186;5.552;2022-12-18T14:43:21;-0.50;86.90
55598;DHT22;41463;53.186;5.552;2022-12-18T14:45:47;0.90;87.80
55598;DHT22;41463;53.186;5.552;2022-12-18T14:48:33;-0.60;87.30
55598;DHT22;41463;53.186;5.552;2022-12-18T14:51:24;-0.70;87.30
55598;DHT22;41463;53.186;5.552;2022-12-18T14:56:23;-0.70;87.40
55598;DHT22;41463;53.186;5.552;2022-12-18T14:59:13;-0.70;87.70
55598;DHT22;41463;53.186;5.552;2022-12-18T15:04:33;-0.20;88.20
55598;DHT22;41463;53.186;5.552;2022-12-18T15:09:38;0.00;88.60
55598;DHT22;41463;53.186;5.552;2022-12-18T15:12:05;0.90;89.20
55598;DHT22;41463;53.186;5.552;2022-12-18T15:17:18;0.30;88.40
55598;DHT22;41463;53.186;5.552;2022-12-18T15:19:46;0.60;88.10
55598;DHT22;41463;53.186;5.552;2022-12-18T15:22:29;0.10;87.50
55598;DHT22;41463;53.186;5.552;2022-12-18T15:24:56;-0.70;87.70
55598;DHT22;41463;53.186;5.552;2022-12-18T15:27:32;-0.50;87.30
55598;DHT22;41463;53.186;5.552;2022-12-18T15:32:38;-0.70;87.60
55598;DHT22;41463;53.186;5.552;2022-12-18T15:37:56;-0.80;87.90
55598;DHT22;41463;53.186;5.552;2022-12-18T15:40:22;-0.80;87.50
55598;DHT22;41463;53.186;5.552;2022-12-18T15:42:52;-0.80;87.60
55598;DHT22;41463;53.186;5.552;2022-12-18T15:45:38;-0.70;87.60
55598;DHT22;41463;53.186;5.552;2022-12-18T15:48:20;-0.80;87.60
55598;DHT22;41463;53.186;5.552;2022-12-18T15:50:51;0.80;88.60
55598;DHT22;41463;53.186;5.552;2022-12-18T15:53:21;-0.80;87.70
55598;DHT22;41463;53.186;5.552;2022-12-18T15:55:47;-0.80;87.60
55598;DHT22;41463;53.186;5.552;2022-12-18T15:58:31;-0.80;87.70
55598;DHT22;41463;53.186;5.552;2022-12-18T16:01:13;0.90;88.80
55598;DHT22;41463;53.186;5.552;2022-12-18T16:03:40;-0.70;88.10
55598;DHT22;41463;53.186;5.552;2022-12-18T16:06:06;-0.80;87.00
55598;DHT22;41463;53.186;5.552;2022-12-18T16:08:37;-0.80;88.00
55598;DHT22;41463;53.186;5.552;2022-12-18T16:11:22;0.80;89.80
55598;DHT22;41463;53.186;5.552;2022-12-18T16:14:27;-0.70;87.90
55598;DHT22;41463;53.186;5.552;2022-12-18T16:16:58;-0.70;87.90
55598;DHT22;41463;53.186;5.552;2022-12-18T16:19:25;-0.70;88.60
55598;DHT22;41463;53.186;5.552;2022-12-18T16:21:52;0.70;88.50
55598;DHT22;41463;53.186;5.552;2022-12-18T16:24:22;-0.40;87.90
55598;DHT22;41463;53.186;5.552;2022-12-18T16:26:49;-0.20;87.80
55598;DHT22;41463;53.186;5.552;2022-12-18T16:29:17;0.20;88.20
55598;DHT22;41463;53.186;5.552;2022-12-18T16:31:46;-0.50;87.20
55598;DHT22;41463;53.186;5.552;2022-12-18T16:34:17;1.20;88.40
55598;DHT22;41463;53.186;5.552;2022-12-18T16:36:50;-0.30;87.10
55598;DHT22;41463;53.186;5.552;2022-12-18T16:39:19;-0.80;87.70
55598;DHT22;41463;53.186;5.552;2022-12-18T16:41:45;-0.20;86.70
55598;DHT22;41463;53.186;5.552;2022-12-18T16:44:12;-0.10;87.20
55598;DHT22;41463;53.186;5.552;2022-12-18T16:46:38;-0.40;87.10
55598;DHT22;41463;53.186;5.552;2022-12-18T16:49:05;-0.40;86.90
55598;DHT22;41463;53.186;5.552;2022-12-18T16:51:31;-0.20;87.10
55598;DHT22;41463;53.186;5.552;2022-12-18T16:53:56;0.10;88.20
55598;DHT22;41463;53.186;5.552;2022-12-18T16:56:25;1.60;87.70
55598;DHT22;41463;53.186;5.552;2022-12-18T16:58:52;2.10;88.80
55598;DHT22;41463;53.186;5.552;2022-12-18T17:01:19;-0.40;87.60
55598;DHT22;41463;53.186;5.552;2022-12-18T17:03:53;1.30;87.50
55598;DHT22;41463;53.186;5.552;2022-12-18T17:06:24;-0.60;86.50
55598;DHT22;41463;53.186;5.552;2022-12-18T17:09:01;1.20;87.40
55598;DHT22;41463;53.186;5.552;2022-12-18T17:11:32;1.50;87.30
55598;DHT22;41463;53.186;5.552;2022-12-18T17:14:04;0.60;86.90
55598;DHT22;41463;53.186;5.552;2022-12-18T17:16:40;0.20;87.90
55598;DHT22;41463;53.186;5.552;2022-12-18T17:19:06;-0.20;87.80
55598;DHT22;41463;53.186;5.552;2022-12-18T17:21:33;1.10;87.60
55598;DHT22;41463;53.186;5.552;2022-12-18T17:23:59;-0.10;87.60
55598;DHT22;41463;53.186;5.552;2022-12-18T17:26:29;0.50;87.10
55598;DHT22;41463;53.186;5.552;2022-12-18T17:28:58;0.00;87.20
55598;DHT22;41463;53.186;5.552;2022-12-18T17:31:28;0.70;86.70
55598;DHT22;41463;53.186;5.552;2022-12-18T17:33:55;1.00;86.80
55598;DHT22;41463;53.186;5.552;2022-12-18T17:36:25;0.70;86.70
55598;DHT22;41463;53.186;5.552;2022-12-18T17:38:58;0.30;86.60
55598;DHT22;41463;53.186;5.552;2022-12-18T17:41:32;1.10;87.50
55598;DHT22;41463;53.186;5.552;2022-12-18T17:44:04;-0.10;86.80
55598;DHT22;41463;53.186;5.552;2022-12-18T17:46:32;2.20;88.70
55598;DHT22;41463;53.186;5.552;2022-12-18T17:49:00;2.10;87.90
55598;DHT22;41463;53.186;5.552;2022-12-18T17:51:29;-0.70;86.00
55598;DHT22;41463;53.186;5.552;2022-12-18T17:53:55;-0.90;86.40
55598;DHT22;41463;53.186;5.552;2022-12-18T17:56:22;-1.90;85.90
55598;DHT22;41463;53.186;5.552;2022-12-18T17:58:49;-0.30;86.20
55598;DHT22;41463;53.186;5.552;2022-12-18T18:01:21;2.10;87.50
55598;DHT22;41463;53.186;5.552;2022-12-18T18:03:47;1.00;87.50
55598;DHT22;41463;53.186;5.552;2022-12-18T18:06:13;-0.20;86.90
55598;DHT22;41463;53.186;5.552;2022-12-18T18:08:42;0.40;87.30
55598;DHT22;41463;53.186;5.552;2022-12-18T18:11:12;-0.40;86.10
55598;DHT22;41463;53.186;5.552;2022-12-18T18:13:57;-0.30;86.90